sensor_id;sensor_type;location;lat;lon;timestamp;P1;durP1;ratioP1;P2;durP2;ratioP2
4409;SDS011;2218;51.408;7.208;2023-05-07T00:01:42;0.70;;;0.50;;
4409;SDS011;2218;51.408;7.208;2023-05-07T00:04:09;0.70;;;0.50;;
4409;SDS011;2218;51.408;7.208;2023-05-07T00:06:36;0.70;;;0.50;;
4409;SDS011;2218;51.408;7.208;2023-05-07T00:09:03;0.70;;;0.60;;
4409;SDS011;2218;51.408;7.208;2023-05-07T00:11:31;0.70;;;0.50;;
4409;SDS011;2218;51.408;7.208;2023-05-07T00:14:00;0.70;;;0.50;;
4409;SDS011;2218;51.408;7.208;2023-05-07T00:16:27;0.70;;;0.70;;
4409;SDS011;2218;51.408;7.208;2023-05-07T00:18:54;0.70;;;0.60;;
4409;SDS011;2218;51.408;7.208;2023-05-07T00:21:20;0.70;;;0.50;;
4409;SDS011;2218;51.408;7.208;2023-05-07T00:23:48;0.70;;;0.50;;
4409;SDS011;2218;51.408;7.208;2023-05-07T00:26:15;0.70;;;0.50;;
4409;SDS011;2218;51.408;7.208;2023-05-07T00:28:45;0.80;;;0.60;;
4409;SDS011;2218;51.408;7.208;2023-05-07T00:31:12;0.70;;;0.50;;
4409;SDS011;2218;51.408;7.208;2023-05-07T00:33:39;0.70;;;0.50;;
4409;SDS011;2218;51.408;7.208;2023-05-07T00:36:06;0.60;;;0.40;;
4409;SDS011;2218;51.408;7.208;2023-05-07T00:38:33;0.70;;;0.60;;
4409;SDS011;2218;51.408;7.208;2023-05-07T00:41:00;0.70;;;0.60;;
4409;SDS011;2218;51.408;7.208;2023-05-07T00:43:28;0.70;;;0.50;;
4409;SDS011;2218;51.408;7.208;2023-05-07T00:45:56;0.80;;;0.60;;
4409;SDS011;2218;51.408;7.208;2023-05-07T00:48:23;0.70;;;0.60;;
4409;SDS011;2218;51.408;7.208;2023-05-07T00:50:52;0.70;;;0.50;;
4409;SDS011;2218;51.408;7.208;2023-05-07T00:53:19;0.90;;;0.60;;
4409;SDS011;2218;51.408;7.208;2023-05-07T00:55:47;0.70;;;0.60;;
4409;SDS011;2218;51.408;7.208;2023-05-07T00:58:14;0.73;;;0.63;;
4409;SDS011;2218;51.408;7.208;2023-05-07T01:00:42;0.63;;;0.50;;
4409;SDS011;2218;51.408;7.208;2023-05-07T01:03:11;0.70;;;0.67;;
4409;SDS011;2218;51.408;7.208;2023-05-07T01:05:38;0.70;;;0.50;;
4409;SDS011;2218;51.408;7.208;2023-05-07T01:08:07;0.70;;;0.60;;
4409;SDS011;2218;51.408;7.208;2023-05-07T01:10:34;0.70;;;0.50;;
4409;SDS011;2218;51.408;7.208;2023-05-07T01:13:01;0.60;;;0.43;;
4409;SDS011;2218;51.408;7.208;2023-05-07T01:15:28;0.70;;;0.50;;
4409;SDS011;2218;51.408;7.208;2023-05-07T01:17:56;0.70;;;0.60;;
4409;SDS011;2218;51.408;7.208;2023-05-07T01:20:31;0.67;;;0.50;;
4409;SDS011;2218;51.408;7.208;2023-05-07T01:23:00;0.70;;;0.50;;
4409;SDS011;2218;51.408;7.208;2023-05-07T01:25:29;0.60;;;0.40;;
4409;SDS011;2218;51.408;7.208;2023-05-07T01:27:59;0.70;;;0.50;;
4409;SDS011;2218;51.408;7.208;2023-05-07T01:30:29;0.70;;;0.50;;
4409;SDS011;2218;51.408;7.208;2023-05-07T01:33:00;0.60;;;0.50;;
4409;SDS011;2218;51.408;7.208;2023-05-07T01:35:34;0.80;;;0.70;;
4409;SDS011;2218;51.408;7.208;2023-05-07T01:38:07;0.73;;;0.70;;
4409;SDS011;2218;51.408;7.208;2023-05-07T01:40:35;0.70;;;0.50;;
4409;SDS011;2218;51.408;7.208;2023-05-07T01:43:02;0.70;;;0.60;;
4409;SDS011;2218;51.408;7.208;2023-05-07T01:45:31;0.70;;;0.63;;
4409;SDS011;2218;51.408;7.208;2023-05-07T01:48:01;0.77;;;0.60;;
4409;SDS011;2218;51.408;7.208;2023-05-07T01:50:29;0.70;;;0.50;;
4409;SDS011;2218;51.408;7.208;2023-05-07T01:52:58;0.70;;;0.50;;
4409;SDS011;2218;51.408;7.208;2023-05-07T01:55:27;0.70;;;0.50;;
4409;SDS011;2218;51.408;7.208;2023-05-07T01:57:54;0.80;;;0.60;;
4409;SDS011;2218;51.408;7.208;2023-05-07T02:00:21;0.70;;;0.50;;
4409;SDS011;2218;51.408;7.208;2023-05-07T02:02:49;0.70;;;0.53;;
4409;SDS011;2218;51.408;7.208;2023-05-07T02:05:27;0.70;;;0.53;;
4409;SDS011;2218;51.408;7.208;2023-05-07T02:07:59;0.90;;;0.80;;
4409;SDS011;2218;51.408;7.208;2023-05-07T02:10:28;0.70;;;0.60;;
4409;SDS011;2218;51.408;7.208;2023-05-07T02:12:55;0.70;;;0.60;;
4409;SDS011;2218;51.408;7.208;2023-05-07T02:15:23;0.70;;;0.50;;
4409;SDS011;2218;51.408;7.208;2023-05-07T02:18:00;0.70;;;0.60;;
4409;SDS011;2218;51.408;7.208;2023-05-07T02:20:30;0.70;;;0.60;;
4409;SDS011;2218;51.408;7.208;2023-05-07T02:22:57;0.70;;;0.50;;
4409;SDS011;2218;51.408;7.208;2023-05-07T02:25:26;0.80;;;0.70;;
4409;SDS011;2218;51.408;7.208;2023-05-07T02:27:54;0.70;;;0.60;;
4409;SDS011;2218;51.408;7.208;2023-05-07T02:30:28;0.73;;;0.53;;
4409;SDS011;2218;51.408;7.208;2023-05-07T02:32:57;0.70;;;0.53;;
4409;SDS011;2218;51.408;7.208;2023-05-07T02:35:24;0.90;;;0.60;;
4409;SDS011;2218;51.408;7.208;2023-05-07T02:37:51;0.70;;;0.60;;
4409;SDS011;2218;51.408;7.208;2023-05-07T02:40:18;0.70;;;0.60;;
4409;SDS011;2218;51.408;7.208;2023-05-07T02:42:46;0.70;;;0.50;;
4409;SDS011;2218;51.408;7.208;2023-05-07T02:45:14;0.80;;;0.70;;
4409;SDS011;2218;51.408;7.208;2023-05-07T02:47:42;0.80;;;0.60;;
4409;SDS011;2218;51.408;7.208;2023-05-07T02:50:10;0.70;;;0.60;;
4409;SDS011;2218;51.408;7.208;2023-05-07T02:52:38;0.70;;;0.57;;
4409;SDS011;2218;51.408;7.208;2023-05-07T02:55:05;0.70;;;0.53;;
4409;SDS011;2218;51.408;7.208;2023-05-07T02:57:33;0.70;;;0.60;;
4409;SDS011;2218;51.408;7.208;2023-05-07T03:00:09;0.67;;;0.50;;
4409;SDS011;2218;51.408;7.208;2023-05-07T03:02:42;1.23;;;0.70;;
4409;SDS011;2218;51.408;7.208;2023-05-07T03:05:09;0.70;;;0.53;;
4409;SDS011;2218;51.408;7.208;2023-05-07T03:07:37;0.70;;;0.60;;
4409;SDS011;2218;51.408;7.208;2023-05-07T03:10:04;0.70;;;0.60;;
4409;SDS011;2218;51.408;7.208;2023-05-07T03:12:32;0.70;;;0.60;;
4409;SDS011;2218;51.408;7.208;2023-05-07T03:14:59;0.80;;;0.60;;
4409;SDS011;2218;51.408;7.208;2023-05-07T03:17:26;0.67;;;0.57;;
4409;SDS011;2218;51.408;7.208;2023-05-07T03:19:55;0.70;;;0.60;;
4409;SDS011;2218;51.408;7.208;2023-05-07T03:22:22;0.70;;;0.60;;
4409;SDS011;2218;51.408;7.208;2023-05-07T03:24:49;0.80;;;0.57;;
4409;SDS011;2218;51.408;7.208;2023-05-07T03:27:15;0.70;;;0.63;;
4409;SDS011;2218;51.408;7.208;2023-05-07T03:29:43;0.70;;;0.60;;
4409;SDS011;2218;51.408;7.208;2023-05-07T03:32:10;0.60;;;0.50;;
4409;SDS011;2218;51.408;7.208;2023-05-07T03:34:37;0.80;;;0.80;;
4409;SDS011;2218;51.408;7.208;2023-05-07T03:37:06;0.73;;;0.60;;
4409;SDS011;2218;51.408;7.208;2023-05-07T03:39:33;0.70;;;0.50;;
4409;SDS011;2218;51.408;7.208;2023-05-07T03:42:00;0.70;;;0.50;;
4409;SDS011;2218;51.408;7.208;2023-05-07T03:44:28;0.70;;;0.60;;
4409;SDS011;2218;51.408;7.208;2023-05-07T03:46:56;0.80;;;0.50;;
4409;SDS011;2218;51.408;7.208;2023-05-07T03:49:23;0.70;;;0.60;;
4409;SDS011;2218;51.408;7.208;2023-05-07T03:51:49;0.80;;;0.60;;
4409;SDS011;2218;51.408;7.208;2023-05-07T03:54:18;0.70;;;0.53;;
4409;SDS011;2218;51.408;7.208;2023-05-07T03:56:46;0.80;;;0.60;;
4409;SDS011;2218;51.408;7.208;2023-05-07T03:59:13;0.90;;;0.70;;
4409;SDS011;2218;51.408;7.208;2023-05-07T04:01:42;0.70;;;0.60;;
4409;SDS011;2218;51.408;7.208;2023-05-07T04:04:14;0.80;;;0.70;;
4409;SDS011;2218;51.408;7.208;2023-05-07T04:06:41;0.60;;;0.47;;
4409;SDS011;2218;51.408;7.208;2023-05-07T04:09:08;0.70;;;0.50;;
4409;SDS011;2218;51.408;7.208;2023-05-07T04:11:38;0.70;;;0.60;;
4409;SDS011;2218;51.408;7.208;2023-05-07T04:14:08;0.70;;;0.60;;
4409;SDS011;2218;51.408;7.208;2023-05-07T04:16:35;1.00;;;0.90;;
4409;SDS011;2218;51.408;7.208;2023-05-07T04:19:02;0.70;;;0.60;;
4409;SDS011;2218;51.408;7.208;2023-05-07T04:21:30;0.70;;;0.50;;
4409;SDS011;2218;51.408;7.208;2023-05-07T04:23:58;0.70;;;0.60;;
4409;SDS011;2218;51.408;7.208;2023-05-07T04:26:24;0.77;;;0.67;;
4409;SDS011;2218;51.408;7.208;2023-05-07T04:28:53;0.70;;;0.60;;
4409;SDS011;2218;51.408;7.208;2023-05-07T04:31:20;0.80;;;0.70;;
4409;SDS011;2218;51.408;7.208;2023-05-07T04:33:50;0.80;;;0.70;;
4409;SDS011;2218;51.408;7.208;2023-05-07T04:36:18;0.70;;;0.63;;
4409;SDS011;2218;51.408;7.208;2023-05-07T04:38:50;0.70;;;0.50;;
4409;SDS011;2218;51.408;7.208;2023-05-07T04:41:18;0.73;;;0.60;;
4409;SDS011;2218;51.408;7.208;2023-05-07T04:43:45;0.70;;;0.60;;
4409;SDS011;2218;51.408;7.208;2023-05-07T04:46:15;0.70;;;0.50;;
4409;SDS011;2218;51.408;7.208;2023-05-07T04:48:43;0.70;;;0.70;;
4409;SDS011;2218;51.408;7.208;2023-05-07T04:51:10;0.80;;;0.80;;
4409;SDS011;2218;51.408;7.208;2023-05-07T04:53:37;0.70;;;0.50;;
4409;SDS011;2218;51.408;7.208;2023-05-07T04:56:04;0.80;;;0.60;;
4409;SDS011;2218;51.408;7.208;2023-05-07T04:58:38;0.70;;;0.60;;
4409;SDS011;2218;51.408;7.208;2023-05-07T05:01:06;0.70;;;0.60;;
4409;SDS011;2218;51.408;7.208;2023-05-07T05:03:34;0.70;;;0.60;;
4409;SDS011;2218;51.408;7.208;2023-05-07T05:06:01;0.70;;;0.60;;
4409;SDS011;2218;51.408;7.208;2023-05-07T05:08:32;0.70;;;0.60;;
4409;SDS011;2218;51.408;7.208;2023-05-07T05:11:01;0.70;;;0.60;;
4409;SDS011;2218;51.408;7.208;2023-05-07T05:13:28;0.70;;;0.60;;
4409;SDS011;2218;51.408;7.208;2023-05-07T05:15:56;0.70;;;0.50;;
4409;SDS011;2218;51.408;7.208;2023-05-07T05:18:25;0.70;;;0.53;;
4409;SDS011;2218;51.408;7.208;2023-05-07T05:20:53;0.80;;;0.70;;
4409;SDS011;2218;51.408;7.208;2023-05-07T05:23:20;0.80;;;0.67;;
4409;SDS011;2218;51.408;7.208;2023-05-07T05:25:47;0.70;;;0.60;;
4409;SDS011;2218;51.408;7.208;2023-05-07T05:28:15;0.70;;;0.50;;
4409;SDS011;2218;51.408;7.208;2023-05-07T05:30:42;0.70;;;0.60;;
4409;SDS011;2218;51.408;7.208;2023-05-07T05:33:08;0.80;;;0.60;;
4409;SDS011;2218;51.408;7.208;2023-05-07T05:35:36;0.70;;;0.60;;
4409;SDS011;2218;51.408;7.208;2023-05-07T05:38:07;0.70;;;0.67;;
4409;SDS011;2218;51.408;7.208;2023-05-07T05:40:34;0.70;;;0.60;;
4409;SDS011;2218;51.408;7.208;2023-05-07T05:43:01;0.70;;;0.50;;
4409;SDS011;2218;51.408;7.208;2023-05-07T05:45:29;0.70;;;0.60;;
4409;SDS011;2218;51.408;7.208;2023-05-07T05:47:56;0.70;;;0.60;;
4409;SDS011;2218;51.408;7.208;2023-05-07T05:50:23;0.70;;;0.57;;
4409;SDS011;2218;51.408;7.208;2023-05-07T05:52:51;0.70;;;0.60;;
4409;SDS011;2218;51.408;7.208;2023-05-07T05:55:20;0.70;;;0.60;;
4409;SDS011;2218;51.408;7.208;2023-05-07T05:57:48;0.70;;;0.60;;
4409;SDS011;2218;51.408;7.208;2023-05-07T06:00:15;0.70;;;0.60;;
4409;SDS011;2218;51.408;7.208;2023-05-07T06:02:45;0.70;;;0.70;;
4409;SDS011;2218;51.408;7.208;2023-05-07T06:05:18;0.70;;;0.50;;
4409;SDS011;2218;51.408;7.208;2023-05-07T06:07:47;0.73;;;0.67;;
4409;SDS011;2218;51.408;7.208;2023-05-07T06:10:14;0.70;;;0.60;;
4409;SDS011;2218;51.408;7.208;2023-05-07T06:12:43;0.70;;;0.60;;
4409;SDS011;2218;51.408;7.208;2023-05-07T06:15:10;0.70;;;0.60;;
4409;SDS011;2218;51.408;7.208;2023-05-07T06:17:38;0.70;;;0.60;;
4409;SDS011;2218;51.408;7.208;2023-05-07T06:20:06;0.70;;;0.60;;
4409;SDS011;2218;51.408;7.208;2023-05-07T06:22:34;0.70;;;0.50;;
4409;SDS011;2218;51.408;7.208;2023-05-07T06:25:02;0.70;;;0.67;;
4409;SDS011;2218;51.408;7.208;2023-05-07T06:27:29;0.80;;;0.60;;
4409;SDS011;2218;51.408;7.208;2023-05-07T06:29:58;0.70;;;0.70;;
4409;SDS011;2218;51.408;7.208;2023-05-07T06:32:25;0.70;;;0.60;;
4409;SDS011;2218;51.408;7.208;2023-05-07T06:34:53;0.70;;;0.50;;
4409;SDS011;2218;51.408;7.208;2023-05-07T06:37:20;0.73;;;0.50;;
4409;SDS011;2218;51.408;7.208;2023-05-07T06:39:54;0.70;;;0.57;;
4409;SDS011;2218;51.408;7.208;2023-05-07T06:42:21;0.80;;;0.80;;
4409;SDS011;2218;51.408;7.208;2023-05-07T06:44:49;0.70;;;0.50;;
4409;SDS011;2218;51.408;7.208;2023-05-07T06:47:18;0.70;;;0.60;;
4409;SDS011;2218;51.408;7.208;2023-05-07T06:49:49;0.70;;;0.70;;
4409;SDS011;2218;51.408;7.208;2023-05-07T06:52:19;0.70;;;0.60;;
4409;SDS011;2218;51.408;7.208;2023-05-07T06:54:48;0.80;;;0.50;;
4409;SDS011;2218;51.408;7.208;2023-05-07T06:57:16;0.70;;;0.50;;
4409;SDS011;2218;51.408;7.208;2023-05-07T06:59:43;1.10;;;0.70;;
4409;SDS011;2218;51.408;7.208;2023-05-07T07:02:11;0.60;;;0.40;;
4409;SDS011;2218;51.408;7.208;2023-05-07T07:04:39;0.80;;;0.70;;
4409;SDS011;2218;51.408;7.208;2023-05-07T07:07:09;0.70;;;0.60;;
4409;SDS011;2218;51.408;7.208;2023-05-07T07:09:37;0.60;;;0.50;;
4409;SDS011;2218;51.408;7.208;2023-05-07T07:12:05;0.70;;;0.50;;
4409;SDS011;2218;51.408;7.208;2023-05-07T07:14:35;0.97;;;0.60;;
4409;SDS011;2218;51.408;7.208;2023-05-07T07:17:02;0.70;;;0.60;;
4409;SDS011;2218;51.408;7.208;2023-05-07T07:19:30;0.60;;;0.50;;
4409;SDS011;2218;51.408;7.208;2023-05-07T07:21:59;0.70;;;0.53;;
4409;SDS011;2218;51.408;7.208;2023-05-07T07:24:26;0.70;;;0.50;;
4409;SDS011;2218;51.408;7.208;2023-05-07T07:26:58;0.67;;;0.50;;
4409;SDS011;2218;51.408;7.208;2023-05-07T07:29:26;0.70;;;0.57;;
4409;SDS011;2218;51.408;7.208;2023-05-07T07:31:53;0.70;;;0.50;;
4409;SDS011;2218;51.408;7.208;2023-05-07T07:34:20;0.70;;;0.63;;
4409;SDS011;2218;51.408;7.208;2023-05-07T07:36:48;0.67;;;0.50;;
4409;SDS011;2218;51.408;7.208;2023-05-07T07:39:18;0.70;;;0.60;;
4409;SDS011;2218;51.408;7.208;2023-05-07T07:41:48;0.70;;;0.50;;
4409;SDS011;2218;51.408;7.208;2023-05-07T07:44:17;0.70;;;0.50;;
4409;SDS011;2218;51.408;7.208;2023-05-07T07:46:48;0.70;;;0.50;;
4409;SDS011;2218;51.408;7.208;2023-05-07T07:49:16;0.70;;;0.60;;
4409;SDS011;2218;51.408;7.208;2023-05-07T07:51:43;0.80;;;0.60;;
4409;SDS011;2218;51.408;7.208;2023-05-07T07:54:12;0.70;;;0.70;;
4409;SDS011;2218;51.408;7.208;2023-05-07T07:56:41;0.70;;;0.60;;
4409;SDS011;2218;51.408;7.208;2023-05-07T07:59:09;0.70;;;0.60;;
4409;SDS011;2218;51.408;7.208;2023-05-07T08:01:39;0.80;;;0.70;;
4409;SDS011;2218;51.408;7.208;2023-05-07T08:04:06;0.70;;;0.50;;
4409;SDS011;2218;51.408;7.208;2023-05-07T08:06:37;0.70;;;0.50;;
4409;SDS011;2218;51.408;7.208;2023-05-07T08:09:05;0.70;;;0.50;;
4409;SDS011;2218;51.408;7.208;2023-05-07T08:11:32;0.70;;;0.70;;
4409;SDS011;2218;51.408;7.208;2023-05-07T08:14:01;0.70;;;0.60;;
4409;SDS011;2218;51.408;7.208;2023-05-07T08:16:28;0.70;;;0.50;;
4409;SDS011;2218;51.408;7.208;2023-05-07T08:18:55;0.70;;;0.53;;
4409;SDS011;2218;51.408;7.208;2023-05-07T08:21:22;0.80;;;0.60;;
4409;SDS011;2218;51.408;7.208;2023-05-07T08:23:49;0.70;;;0.60;;
4409;SDS011;2218;51.408;7.208;2023-05-07T08:26:16;0.70;;;0.60;;
4409;SDS011;2218;51.408;7.208;2023-05-07T08:28:44;0.70;;;0.60;;
4409;SDS011;2218;51.408;7.208;2023-05-07T08:31:12;0.73;;;0.60;;
4409;SDS011;2218;51.408;7.208;2023-05-07T08:33:42;0.70;;;0.60;;
4409;SDS011;2218;51.408;7.208;2023-05-07T08:36:09;0.70;;;0.60;;
4409;SDS011;2218;51.408;7.208;2023-05-07T08:38:36;0.70;;;0.60;;
4409;SDS011;2218;51.408;7.208;2023-05-07T08:41:06;0.80;;;0.80;;
4409;SDS011;2218;51.408;7.208;2023-05-07T08:43:37;0.70;;;0.50;;
4409;SDS011;2218;51.408;7.208;2023-05-07T08:46:08;0.70;;;0.60;;
4409;SDS011;2218;51.408;7.208;2023-05-07T08:48:41;0.70;;;0.60;;
4409;SDS011;2218;51.408;7.208;2023-05-07T08:51:12;0.70;;;0.60;;
4409;SDS011;2218;51.408;7.208;2023-05-07T08:53:42;0.80;;;0.60;;
4409;SDS011;2218;51.408;7.208;2023-05-07T08:56:14;0.70;;;0.50;;
4409;SDS011;2218;51.408;7.208;2023-05-07T08:58:42;0.63;;;0.50;;
4409;SDS011;2218;51.408;7.208;2023-05-07T09:01:10;0.70;;;0.60;;
4409;SDS011;2218;51.408;7.208;2023-05-07T09:03:45;0.70;;;0.60;;
4409;SDS011;2218;51.408;7.208;2023-05-07T09:06:14;0.70;;;0.60;;
4409;SDS011;2218;51.408;7.208;2023-05-07T09:08:44;0.70;;;0.57;;
4409;SDS011;2218;51.408;7.208;2023-05-07T09:11:19;0.70;;;0.60;;
4409;SDS011;2218;51.408;7.208;2023-05-07T09:13:48;0.70;;;0.60;;
4409;SDS011;2218;51.408;7.208;2023-05-07T09:16:15;0.80;;;0.60;;
4409;SDS011;2218;51.408;7.208;2023-05-07T09:18:46;0.70;;;0.60;;
4409;SDS011;2218;51.408;7.208;2023-05-07T09:21:14;0.77;;;0.50;;
4409;SDS011;2218;51.408;7.208;2023-05-07T09:23:44;0.70;;;0.50;;
4409;SDS011;2218;51.408;7.208;2023-05-07T09:26:12;0.80;;;0.63;;
4409;SDS011;2218;51.408;7.208;2023-05-07T09:28:41;0.70;;;0.60;;
4409;SDS011;2218;51.408;7.208;2023-05-07T09:31:11;0.90;;;0.60;;
4409;SDS011;2218;51.408;7.208;2023-05-07T09:33:39;0.90;;;0.50;;
4409;SDS011;2218;51.408;7.208;2023-05-07T09:36:10;0.70;;;0.60;;
4409;SDS011;2218;51.408;7.208;2023-05-07T09:38:39;0.70;;;0.50;;
4409;SDS011;2218;51.408;7.208;2023-05-07T09:41:09;0.70;;;0.50;;
4409;SDS011;2218;51.408;7.208;2023-05-07T09:43:55;0.70;;;0.60;;
4409;SDS011;2218;51.408;7.208;2023-05-07T09:46:30;0.70;;;0.60;;
4409;SDS011;2218;51.408;7.208;2023-05-07T09:49:05;0.80;;;0.70;;
4409;SDS011;2218;51.408;7.208;2023-05-07T09:51:43;0.70;;;0.67;;
4409;SDS011;2218;51.408;7.208;2023-05-07T09:54:15;0.70;;;0.63;;
4409;SDS011;2218;51.408;7.208;2023-05-07T09:56:46;0.97;;;0.70;;
4409;SDS011;2218;51.408;7.208;2023-05-07T09:59:16;0.77;;;0.70;;
4409;SDS011;2218;51.408;7.208;2023-05-07T10:01:45;0.70;;;0.63;;
4409;SDS011;2218;51.408;7.208;2023-05-07T10:04:13;0.70;;;0.57;;
4409;SDS011;2218;51.408;7.208;2023-05-07T10:06:43;0.70;;;0.60;;
4409;SDS011;2218;51.408;7.208;2023-05-07T10:09:13;0.70;;;0.70;;
4409;SDS011;2218;51.408;7.208;2023-05-07T10:11:42;1.00;;;0.80;;
4409;SDS011;2218;51.408;7.208;2023-05-07T10:14:10;0.73;;;0.67;;
4409;SDS011;2218;51.408;7.208;2023-05-07T10:16:40;0.80;;;0.60;;
4409;SDS011;2218;51.408;7.208;2023-05-07T10:19:11;0.70;;;0.67;;
4409;SDS011;2218;51.408;7.208;2023-05-07T10:21:48;1.40;;;0.80;;
4409;SDS011;2218;51.408;7.208;2023-05-07T10:24:25;0.70;;;0.50;;
4409;SDS011;2218;51.408;7.208;2023-05-07T10:26:59;0.70;;;0.60;;
4409;SDS011;2218;51.408;7.208;2023-05-07T10:29:33;0.80;;;0.77;;
4409;SDS011;2218;51.408;7.208;2023-05-07T10:32:14;0.80;;;0.80;;
4409;SDS011;2218;51.408;7.208;2023-05-07T10:35:06;0.70;;;0.70;;
4409;SDS011;2218;51.408;7.208;2023-05-07T10:37:41;0.73;;;0.67;;
4409;SDS011;2218;51.408;7.208;2023-05-07T10:40:10;0.90;;;0.70;;
4409;SDS011;2218;51.408;7.208;2023-05-07T10:42:49;0.70;;;0.60;;
4409;SDS011;2218;51.408;7.208;2023-05-07T10:45:22;0.70;;;0.60;;
4409;SDS011;2218;51.408;7.208;2023-05-07T10:50:37;0.80;;;0.70;;
4409;SDS011;2218;51.408;7.208;2023-05-07T10:53:22;1.10;;;0.80;;
4409;SDS011;2218;51.408;7.208;2023-05-07T11:02:17;0.80;;;0.80;;
4409;SDS011;2218;51.408;7.208;2023-05-07T11:07:54;0.80;;;0.70;;
4409;SDS011;2218;51.408;7.208;2023-05-07T11:10:27;0.70;;;0.60;;
4409;SDS011;2218;51.408;7.208;2023-05-07T11:13:42;0.80;;;0.70;;
4409;SDS011;2218;51.408;7.208;2023-05-07T11:16:19;0.93;;;0.90;;
4409;SDS011;2218;51.408;7.208;2023-05-07T11:18:54;0.80;;;0.77;;
4409;SDS011;2218;51.408;7.208;2023-05-07T11:21:33;0.70;;;0.60;;
4409;SDS011;2218;51.408;7.208;2023-05-07T11:24:10;1.00;;;0.70;;
4409;SDS011;2218;51.408;7.208;2023-05-07T11:26:49;0.80;;;0.70;;
4409;SDS011;2218;51.408;7.208;2023-05-07T11:29:19;0.70;;;0.70;;
4409;SDS011;2218;51.408;7.208;2023-05-07T11:31:49;2.00;;;0.70;;
4409;SDS011;2218;51.408;7.208;2023-05-07T11:34:22;0.77;;;0.70;;
4409;SDS011;2218;51.408;7.208;2023-05-07T11:36:52;1.20;;;0.70;;
4409;SDS011;2218;51.408;7.208;2023-05-07T11:39:26;0.73;;;0.70;;
4409;SDS011;2218;51.408;7.208;2023-05-07T11:41:56;0.70;;;0.70;;
4409;SDS011;2218;51.408;7.208;2023-05-07T11:44:23;0.90;;;0.80;;
4409;SDS011;2218;51.408;7.208;2023-05-07T11:46:50;1.13;;;0.80;;
4409;SDS011;2218;51.408;7.208;2023-05-07T11:49:17;0.80;;;0.80;;
4409;SDS011;2218;51.408;7.208;2023-05-07T11:51:45;1.10;;;1.00;;
4409;SDS011;2218;51.408;7.208;2023-05-07T11:54:15;0.80;;;0.70;;
4409;SDS011;2218;51.408;7.208;2023-05-07T11:56:43;0.70;;;0.63;;
4409;SDS011;2218;51.408;7.208;2023-05-07T11:59:13;1.17;;;0.80;;
4409;SDS011;2218;51.408;7.208;2023-05-07T12:01:45;0.73;;;0.73;;
4409;SDS011;2218;51.408;7.208;2023-05-07T12:04:13;1.27;;;0.80;;
4409;SDS011;2218;51.408;7.208;2023-05-07T12:06:45;0.70;;;0.70;;
4409;SDS011;2218;51.408;7.208;2023-05-07T12:09:12;0.80;;;0.70;;
4409;SDS011;2218;51.408;7.208;2023-05-07T12:11:40;0.80;;;0.80;;
4409;SDS011;2218;51.408;7.208;2023-05-07T12:14:13;0.93;;;0.80;;
4409;SDS011;2218;51.408;7.208;2023-05-07T12:16:41;0.80;;;0.80;;
4409;SDS011;2218;51.408;7.208;2023-05-07T12:19:10;1.10;;;1.00;;
4409;SDS011;2218;51.408;7.208;2023-05-07T12:21:38;1.00;;;0.90;;
4409;SDS011;2218;51.408;7.208;2023-05-07T12:24:05;0.70;;;0.67;;
4409;SDS011;2218;51.408;7.208;2023-05-07T12:26:37;1.00;;;0.87;;
4409;SDS011;2218;51.408;7.208;2023-05-07T12:29:05;0.73;;;0.73;;
4409;SDS011;2218;51.408;7.208;2023-05-07T12:31:34;1.10;;;1.00;;
4409;SDS011;2218;51.408;7.208;2023-05-07T12:34:01;1.07;;;0.80;;
4409;SDS011;2218;51.408;7.208;2023-05-07T12:36:36;1.00;;;0.80;;
4409;SDS011;2218;51.408;7.208;2023-05-07T12:39:04;0.80;;;0.80;;
4409;SDS011;2218;51.408;7.208;2023-05-07T12:41:35;0.80;;;0.80;;
4409;SDS011;2218;51.408;7.208;2023-05-07T12:44:18;0.90;;;0.80;;
4409;SDS011;2218;51.408;7.208;2023-05-07T12:46:47;0.80;;;0.80;;
4409;SDS011;2218;51.408;7.208;2023-05-07T12:49:14;0.97;;;0.97;;
4409;SDS011;2218;51.408;7.208;2023-05-07T12:51:43;0.90;;;0.90;;
4409;SDS011;2218;51.408;7.208;2023-05-07T12:54:10;0.83;;;0.83;;
4409;SDS011;2218;51.408;7.208;2023-05-07T12:56:37;0.83;;;0.83;;
4409;SDS011;2218;51.408;7.208;2023-05-07T12:59:04;1.27;;;0.93;;
4409;SDS011;2218;51.408;7.208;2023-05-07T13:01:31;0.87;;;0.87;;
4409;SDS011;2218;51.408;7.208;2023-05-07T13:04:02;0.77;;;0.67;;
4409;SDS011;2218;51.408;7.208;2023-05-07T13:06:30;1.40;;;1.00;;
4409;SDS011;2218;51.408;7.208;2023-05-07T13:08:57;0.97;;;0.80;;
4409;SDS011;2218;51.408;7.208;2023-05-07T13:11:24;0.70;;;0.70;;
4409;SDS011;2218;51.408;7.208;2023-05-07T13:13:51;1.10;;;1.00;;
4409;SDS011;2218;51.408;7.208;2023-05-07T13:16:18;0.90;;;0.90;;
4409;SDS011;2218;51.408;7.208;2023-05-07T13:18:45;0.80;;;0.80;;
4409;SDS011;2218;51.408;7.208;2023-05-07T13:21:13;0.90;;;0.90;;
4409;SDS011;2218;51.408;7.208;2023-05-07T13:23:40;0.80;;;0.80;;
4409;SDS011;2218;51.408;7.208;2023-05-07T13:26:07;0.97;;;0.97;;
4409;SDS011;2218;51.408;7.208;2023-05-07T13:28:34;0.93;;;0.83;;
4409;SDS011;2218;51.408;7.208;2023-05-07T13:31:02;0.90;;;0.80;;
4409;SDS011;2218;51.408;7.208;2023-05-07T13:33:29;0.90;;;0.90;;
4409;SDS011;2218;51.408;7.208;2023-05-07T13:35:56;1.00;;;1.00;;
4409;SDS011;2218;51.408;7.208;2023-05-07T13:38:24;1.10;;;0.93;;
4409;SDS011;2218;51.408;7.208;2023-05-07T13:40:51;1.10;;;1.00;;
4409;SDS011;2218;51.408;7.208;2023-05-07T13:43:18;0.90;;;0.90;;
4409;SDS011;2218;51.408;7.208;2023-05-07T13:45:45;1.13;;;0.83;;
4409;SDS011;2218;51.408;7.208;2023-05-07T13:48:12;1.00;;;0.90;;
4409;SDS011;2218;51.408;7.208;2023-05-07T13:50:39;0.80;;;0.80;;
4409;SDS011;2218;51.408;7.208;2023-05-07T13:53:07;1.10;;;1.00;;
4409;SDS011;2218;51.408;7.208;2023-05-07T13:55:35;1.10;;;1.03;;
4409;SDS011;2218;51.408;7.208;2023-05-07T13:58:02;1.10;;;0.90;;
4409;SDS011;2218;51.408;7.208;2023-05-07T14:00:29;1.07;;;1.00;;
4409;SDS011;2218;51.408;7.208;2023-05-07T14:02:56;0.97;;;0.87;;
4409;SDS011;2218;51.408;7.208;2023-05-07T14:05:24;1.60;;;0.80;;
4409;SDS011;2218;51.408;7.208;2023-05-07T14:07:53;0.80;;;0.80;;
4409;SDS011;2218;51.408;7.208;2023-05-07T14:10:20;0.80;;;0.80;;
4409;SDS011;2218;51.408;7.208;2023-05-07T14:12:48;2.40;;;0.80;;
4409;SDS011;2218;51.408;7.208;2023-05-07T14:15:15;0.83;;;0.83;;
4409;SDS011;2218;51.408;7.208;2023-05-07T14:17:42;0.93;;;0.93;;
4409;SDS011;2218;51.408;7.208;2023-05-07T14:20:10;0.93;;;0.83;;
4409;SDS011;2218;51.408;7.208;2023-05-07T14:22:38;1.10;;;1.00;;
4409;SDS011;2218;51.408;7.208;2023-05-07T14:25:06;0.80;;;0.80;;
4409;SDS011;2218;51.408;7.208;2023-05-07T14:27:34;0.90;;;0.90;;
4409;SDS011;2218;51.408;7.208;2023-05-07T14:30:03;1.00;;;0.90;;
4409;SDS011;2218;51.408;7.208;2023-05-07T14:32:30;0.90;;;0.80;;
4409;SDS011;2218;51.408;7.208;2023-05-07T14:34:58;1.30;;;1.20;;
4409;SDS011;2218;51.408;7.208;2023-05-07T14:37:25;1.10;;;1.00;;
4409;SDS011;2218;51.408;7.208;2023-05-07T14:39:52;0.90;;;0.90;;
4409;SDS011;2218;51.408;7.208;2023-05-07T14:42:19;0.90;;;0.90;;
4409;SDS011;2218;51.408;7.208;2023-05-07T14:44:46;0.80;;;0.80;;
4409;SDS011;2218;51.408;7.208;2023-05-07T14:47:14;0.80;;;0.73;;
4409;SDS011;2218;51.408;7.208;2023-05-07T14:49:41;1.37;;;1.10;;
4409;SDS011;2218;51.408;7.208;2023-05-07T14:52:08;0.70;;;0.70;;
4409;SDS011;2218;51.408;7.208;2023-05-07T14:54:36;0.80;;;0.80;;
4409;SDS011;2218;51.408;7.208;2023-05-07T14:57:04;1.23;;;1.10;;
4409;SDS011;2218;51.408;7.208;2023-05-07T14:59:32;0.90;;;0.90;;
4409;SDS011;2218;51.408;7.208;2023-05-07T15:01:59;1.20;;;1.10;;
4409;SDS011;2218;51.408;7.208;2023-05-07T15:04:28;0.80;;;0.70;;
4409;SDS011;2218;51.408;7.208;2023-05-07T15:06:55;1.77;;;1.00;;
4409;SDS011;2218;51.408;7.208;2023-05-07T15:09:22;0.80;;;0.80;;
4409;SDS011;2218;51.408;7.208;2023-05-07T15:11:49;0.80;;;0.80;;
4409;SDS011;2218;51.408;7.208;2023-05-07T15:14:16;0.97;;;0.90;;
4409;SDS011;2218;51.408;7.208;2023-05-07T15:16:43;1.47;;;1.00;;
4409;SDS011;2218;51.408;7.208;2023-05-07T15:19:10;1.20;;;1.10;;
4409;SDS011;2218;51.408;7.208;2023-05-07T15:21:41;1.00;;;0.90;;
4409;SDS011;2218;51.408;7.208;2023-05-07T15:24:08;0.90;;;0.90;;
4409;SDS011;2218;51.408;7.208;2023-05-07T15:26:35;1.00;;;1.00;;
4409;SDS011;2218;51.408;7.208;2023-05-07T15:29:02;0.87;;;0.87;;
4409;SDS011;2218;51.408;7.208;2023-05-07T15:31:33;1.43;;;1.33;;
4409;SDS011;2218;51.408;7.208;2023-05-07T15:33:59;1.00;;;1.00;;
4409;SDS011;2218;51.408;7.208;2023-05-07T15:36:26;0.90;;;0.90;;
4409;SDS011;2218;51.408;7.208;2023-05-07T15:38:55;1.10;;;1.00;;